createdAt,value
2018-09-06T00:00:17.252Z,21
2018-09-06T00:01:18.621Z,21
2018-09-06T00:02:19.877Z,21.1
2018-09-06T00:03:21.135Z,21.1
2018-09-06T00:04:22.579Z,21
2018-09-06T00:05:24.087Z,21
2018-09-06T00:06:25.589Z,21
2018-09-06T00:07:27.071Z,21
2018-09-06T00:08:28.492Z,20.9
2018-09-06T00:09:29.786Z,20.9
2018-09-06T00:10:30.983Z,20.9
2018-09-06T00:11:32.129Z,20.9
2018-09-06T00:12:33.240Z,20.9
2018-09-06T00:13:34.363Z,21
2018-09-06T00:14:35.480Z,21
2018-09-06T00:15:36.632Z,20.9
2018-09-06T00:16:37.744Z,20.9
2018-09-06T00:17:38.864Z,20.8
2018-09-06T00:18:40.060Z,20.8
2018-09-06T00:19:41.191Z,20.9
2018-09-06T00:20:42.388Z,20.8
2018-09-06T00:22:44.609Z,20.9
2018-09-06T00:23:45.755Z,20.8
2018-09-06T00:24:46.875Z,20.8
2018-09-06T00:25:48.044Z,20.8
2018-09-06T00:26:49.282Z,20.7
2018-09-06T00:27:52.751Z,20.7
2018-09-06T00:28:53.900Z,20.5
2018-09-06T00:29:55.023Z,20.7
2018-09-06T00:30:56.164Z,20.7
2018-09-06T00:31:57.281Z,20.7
2018-09-06T00:32:58.396Z,20.7
2018-09-06T00:33:59.528Z,20.6
2018-09-06T00:35:00.646Z,20.6
2018-09-06T00:36:01.885Z,20.6
2018-09-06T00:37:03.046Z,20.6
2018-09-06T00:38:04.175Z,20.6
2018-09-06T00:39:05.301Z,20.6
2018-09-06T00:40:06.462Z,20.6
2018-09-06T00:41:07.948Z,20.6
2018-09-06T00:42:09.071Z,20.6
2018-09-06T00:43:10.208Z,20.5
2018-09-06T00:44:11.371Z,20.6
2018-09-06T00:45:12.509Z,20.7
2018-09-06T00:46:14.687Z,20.7
2018-09-06T00:47:16.037Z,20.7
2018-09-06T00:48:17.161Z,20.6
2018-09-06T00:49:18.336Z,20.6
2018-09-06T00:50:19.499Z,20.5
2018-09-06T00:51:20.748Z,20.5
2018-09-06T00:52:21.920Z,20.6
2018-09-06T00:53:23.095Z,20.7
2018-09-06T00:54:24.538Z,20.6
2018-09-06T00:55:25.710Z,20.5
2018-09-06T00:56:26.865Z,20.5
2018-09-06T00:57:28.013Z,20.5
2018-09-06T00:58:29.141Z,20.5
2018-09-06T00:59:30.316Z,20.3
2018-09-06T01:00:31.483Z,20.3
2018-09-06T01:01:32.688Z,20.4
2018-09-06T01:02:33.819Z,20.4
2018-09-06T01:03:34.974Z,20.2
2018-09-06T01:04:36.177Z,20.4
2018-09-06T01:05:37.302Z,20.3
2018-09-06T01:06:38.484Z,20.5
2018-09-06T01:07:39.650Z,20.5
2018-09-06T01:08:40.784Z,20.5
2018-09-06T01:09:41.937Z,20.5
2018-09-06T01:10:43.089Z,20.4
2018-09-06T01:11:44.258Z,20.5
2018-09-06T01:12:45.370Z,20.4
2018-09-06T01:13:46.512Z,20.3
2018-09-06T01:14:47.651Z,20.3
2018-09-06T01:15:48.819Z,20.2
2018-09-06T01:16:49.972Z,20.2
2018-09-06T01:17:51.144Z,20.3
2018-09-06T01:18:52.263Z,20.4
2018-09-06T01:19:53.388Z,20.4
2018-09-06T01:20:54.529Z,20.2
2018-09-06T01:21:55.672Z,20.1
2018-09-06T01:22:56.789Z,20.1
2018-09-06T01:23:57.890Z,20.3
2018-09-06T01:24:59.012Z,20.3
2018-09-06T01:26:00.173Z,20.3
2018-09-06T01:27:01.391Z,20.2
2018-09-06T01:28:02.560Z,20.2
2018-09-06T01:29:03.845Z,20.2
2018-09-06T01:30:05.002Z,20.1
2018-09-06T01:31:06.136Z,20
2018-09-06T01:32:07.432Z,20
2018-09-06T01:33:08.656Z,20
2018-09-06T01:34:09.820Z,20
2018-09-06T01:35:10.964Z,19.9
2018-09-06T01:36:12.091Z,20
2018-09-06T01:37:15.737Z,20.1
2018-09-06T01:38:16.913Z,19.9
2018-09-06T01:39:18.074Z,20
2018-09-06T01:40:21.763Z,20
2018-09-06T01:41:22.920Z,20
2018-09-06T01:42:24.075Z,19.9
2018-09-06T01:43:25.240Z,20
2018-09-06T01:44:26.376Z,20
2018-09-06T01:45:28.620Z,20
2018-09-06T01:46:29.741Z,20.1
2018-09-06T01:47:30.892Z,20
2018-09-06T01:48:32.031Z,19.9
2018-09-06T01:49:33.175Z,19.9
2018-09-06T01:50:34.331Z,19.9
2018-09-06T01:51:35.472Z,19.9
2018-09-06T01:52:36.939Z,19.9
2018-09-06T01:53:38.103Z,19.9
2018-09-06T01:54:39.212Z,19.9
2018-09-06T01:55:40.358Z,19.9
2018-09-06T01:56:41.471Z,19.7
2018-09-06T01:57:42.661Z,19.7
2018-09-06T01:58:43.787Z,19.8
2018-09-06T01:59:44.912Z,19.8
2018-09-06T02:00:46.055Z,19.9
2018-09-06T02:01:47.401Z,19.8
2018-09-06T02:02:48.684Z,19.8
2018-09-06T02:03:49.809Z,19.7
2018-09-06T02:04:50.935Z,19.7
2018-09-06T02:05:52.456Z,19.8
2018-09-06T02:06:53.580Z,19.7
2018-09-06T02:07:54.772Z,19.7
2018-09-06T02:08:55.900Z,19.7
2018-09-06T02:09:57.039Z,19.7
2018-09-06T02:10:58.172Z,19.7
2018-09-06T02:11:59.313Z,19.7
2018-09-06T02:13:00.467Z,19.7
2018-09-06T02:14:01.588Z,19.7
2018-09-06T02:15:02.731Z,19.7
2018-09-06T02:16:03.860Z,19.7
2018-09-06T02:17:05.020Z,19.8
2018-09-06T02:18:06.172Z,19.8
2018-09-06T02:19:07.907Z,19.8
2018-09-06T02:20:10.836Z,19.7
2018-09-06T02:21:11.971Z,19.6
2018-09-06T02:22:13.109Z,19.7
2018-09-06T02:23:14.330Z,19.8
2018-09-06T02:24:15.482Z,19.8
2018-09-06T02:25:16.583Z,19.7
2018-09-06T02:26:17.712Z,19.7
2018-09-06T02:27:18.869Z,19.8
2018-09-06T02:28:20.056Z,19.8
2018-09-06T02:29:21.187Z,19.8
2018-09-06T02:30:22.346Z,19.8
2018-09-06T02:31:23.455Z,19.7
2018-09-06T02:32:24.569Z,19.7
2018-09-06T02:33:25.802Z,19.7
2018-09-06T02:34:26.973Z,19.7
2018-09-06T02:35:28.136Z,19.7
2018-09-06T02:36:29.304Z,19.7
2018-09-06T02:37:30.483Z,19.7
2018-09-06T02:38:31.692Z,19.5
2018-09-06T02:39:32.799Z,19.5
2018-09-06T02:40:33.929Z,19.5
2018-09-06T02:41:35.076Z,19.6
2018-09-06T02:42:36.212Z,19.5
2018-09-06T02:43:37.388Z,19.6
2018-09-06T02:44:38.492Z,19.6
2018-09-06T02:45:39.609Z,19.5
2018-09-06T02:46:40.930Z,19.5
2018-09-06T02:47:42.177Z,19.5
2018-09-06T02:48:43.380Z,19.5
2018-09-06T02:49:44.544Z,19.5
2018-09-06T02:50:45.700Z,19.4
2018-09-06T02:51:46.841Z,19.5
2018-09-06T02:52:47.975Z,19.5
2018-09-06T02:53:49.470Z,19.5
2018-09-06T02:54:50.566Z,19.5
2018-09-06T02:55:51.697Z,19.4
2018-09-06T02:56:52.830Z,19.4
2018-09-06T02:57:54.000Z,19.4
2018-09-06T02:58:55.414Z,19.3
2018-09-06T02:59:56.528Z,19.3
2018-09-06T03:00:57.640Z,19.2
2018-09-06T03:01:58.821Z,19.2
2018-09-06T03:02:59.934Z,19.1
2018-09-06T03:04:01.107Z,19.2
2018-09-06T03:05:02.215Z,19.2
2018-09-06T03:06:03.364Z,19.2
2018-09-06T03:07:04.503Z,19.1
2018-09-06T03:08:05.614Z,19.2
2018-09-06T03:09:06.764Z,19.2
2018-09-06T03:10:07.876Z,19.1
2018-09-06T03:11:09.060Z,18.9
2018-09-06T03:12:10.388Z,19
2018-09-06T03:13:11.656Z,19
2018-09-06T03:14:12.885Z,19.1
2018-09-06T03:15:14.031Z,19
2018-09-06T03:16:15.183Z,19
2018-09-06T03:17:16.332Z,19
2018-09-06T03:18:17.475Z,19
2018-09-06T03:19:18.668Z,19
2018-09-06T03:20:19.841Z,19
2018-09-06T03:21:20.984Z,18.8
2018-09-06T03:22:22.141Z,18.8
2018-09-06T03:23:23.305Z,18.8
2018-09-06T03:24:24.489Z,18.8
2018-09-06T03:25:25.656Z,18.9
2018-09-06T03:26:26.791Z,18.8
2018-09-06T03:27:27.939Z,18.9
2018-09-06T03:28:29.055Z,18.9
2018-09-06T03:29:30.209Z,18.9
2018-09-06T03:30:31.365Z,18.8
2018-09-06T03:31:32.550Z,18.8
2018-09-06T03:32:33.735Z,18.8
2018-09-06T03:33:34.885Z,18.8
2018-09-06T03:34:36.059Z,18.8
2018-09-06T03:35:37.205Z,18.8
2018-09-06T03:36:38.325Z,18.9
2018-09-06T03:37:39.455Z,18.9
2018-09-06T03:38:40.600Z,18.9
2018-09-06T03:39:41.768Z,18.9
2018-09-06T03:40:42.949Z,18.9
2018-09-06T03:41:44.407Z,18.8
2018-09-06T03:42:45.539Z,18.7
2018-09-06T03:43:46.685Z,18.6
2018-09-06T03:44:47.855Z,18.6
2018-09-06T03:45:48.984Z,18.5
2018-09-06T03:46:50.150Z,18.6
2018-09-06T03:47:51.277Z,18.7
2018-09-06T03:48:52.411Z,18.8
2018-09-06T03:49:53.616Z,18.8
2018-09-06T03:50:54.732Z,18.6
2018-09-06T03:51:55.895Z,18.7
2018-09-06T03:52:57.025Z,18.5
2018-09-06T03:53:58.159Z,18.7
2018-09-06T03:54:59.317Z,18.7
2018-09-06T03:56:00.444Z,18.6
2018-09-06T03:57:01.588Z,18.6
2018-09-06T03:58:02.749Z,18.6
2018-09-06T03:59:03.883Z,18.7
2018-09-06T04:00:05.019Z,18.7
2018-09-06T04:01:06.151Z,18.6
2018-09-06T04:02:07.371Z,18.6
2018-09-06T04:03:08.555Z,18.6
2018-09-06T04:04:09.690Z,18.6
2018-09-06T04:05:10.863Z,18.6
2018-09-06T04:06:12.232Z,18.5
2018-09-06T04:07:13.437Z,18.6
2018-09-06T04:08:17.594Z,18.6
2018-09-06T04:09:18.731Z,18.7
2018-09-06T04:10:20.612Z,18.7
2018-09-06T04:11:21.760Z,18.5
2018-09-06T04:12:22.889Z,18.5
2018-09-06T04:13:24.029Z,18.6
2018-09-06T04:14:25.151Z,18.6
2018-09-06T04:15:26.332Z,18.6
2018-09-06T04:16:27.460Z,18.7
2018-09-06T04:17:31.608Z,18.7
2018-09-06T04:18:33.277Z,18.7
2018-09-06T04:19:34.394Z,18.5
2018-09-06T04:20:35.878Z,18.5
2018-09-06T04:21:37.055Z,18.5
2018-09-06T04:22:38.224Z,18.5
2018-09-06T04:23:39.375Z,18.6
2018-09-06T04:24:40.497Z,18.5
2018-09-06T04:25:41.677Z,18.5
2018-09-06T04:26:42.876Z,18.5
2018-09-06T04:27:43.994Z,18.6
2018-09-06T04:28:45.177Z,18.6
2018-09-06T04:29:46.312Z,18.6
2018-09-06T04:30:47.480Z,18.6
2018-09-06T04:31:48.631Z,18.6
2018-09-06T04:32:49.790Z,18.6
2018-09-06T04:33:50.921Z,18.5
2018-09-06T04:34:52.045Z,18.6
2018-09-06T04:35:53.245Z,18.6
2018-09-06T04:36:54.474Z,18.6
2018-09-06T04:37:55.610Z,18.3
2018-09-06T04:38:56.751Z,18.5
2018-09-06T04:39:57.873Z,18.5
2018-09-06T04:40:59.049Z,18.6
2018-09-06T04:42:00.187Z,18.5
2018-09-06T04:43:01.353Z,18.6
2018-09-06T04:44:02.489Z,18.6
2018-09-06T04:45:03.628Z,18.5
2018-09-06T04:46:04.799Z,18.6
2018-09-06T04:47:05.936Z,18.7
2018-09-06T04:48:07.112Z,18.6
2018-09-06T04:49:08.282Z,18.5
2018-09-06T04:50:09.599Z,18.6
2018-09-06T04:51:13.288Z,18.6
2018-09-06T04:52:14.435Z,18.7
2018-09-06T04:53:15.661Z,18.6
2018-09-06T04:54:16.805Z,18.5
2018-09-06T04:55:18.046Z,18.7
2018-09-06T04:56:19.280Z,18.7
2018-09-06T04:57:20.436Z,18.8
2018-09-06T04:58:21.674Z,18.8
2018-09-06T04:59:24.117Z,18.7
2018-09-06T05:00:25.297Z,18.7
2018-09-06T05:01:27.681Z,18.8
2018-09-06T05:02:28.844Z,18.7
2018-09-06T05:03:30.036Z,18.8
2018-09-06T05:04:31.165Z,18.8
2018-09-06T05:05:32.304Z,18.8
2018-09-06T05:06:33.500Z,18.9
2018-09-06T05:07:34.671Z,19
2018-09-06T05:08:35.839Z,19
2018-09-06T05:09:36.966Z,18.8
2018-09-06T05:10:38.165Z,19
2018-09-06T05:11:39.471Z,19
2018-09-06T05:12:41.130Z,19
2018-09-06T05:13:43.604Z,19
2018-09-06T05:14:44.756Z,19.1
2018-09-06T05:15:45.934Z,19.1
2018-09-06T05:16:47.248Z,19.1
2018-09-06T05:17:48.470Z,19.1
2018-09-06T05:18:49.744Z,19.1
2018-09-06T05:19:50.944Z,19.2
2018-09-06T05:20:52.075Z,19.3
2018-09-06T05:21:53.371Z,19.4
2018-09-06T05:22:54.397Z,19.3
2018-09-06T05:23:55.579Z,19.4
2018-09-06T05:24:56.782Z,19.4
2018-09-06T05:25:57.929Z,19.5
2018-09-06T05:26:59.180Z,19.5
2018-09-06T05:28:00.430Z,19.5
2018-09-06T05:29:04.312Z,19.5
2018-09-06T05:30:05.467Z,19.6
2018-09-06T05:31:06.612Z,19.6
2018-09-06T05:32:08.076Z,19.5
2018-09-06T05:33:09.214Z,19.6
2018-09-06T05:34:10.451Z,19.7
2018-09-06T05:35:11.616Z,19.7
2018-09-06T05:36:12.841Z,19.7
2018-09-06T05:37:14.315Z,19.7
2018-09-06T05:38:20.468Z,19.7
2018-09-06T05:39:21.726Z,19.5
2018-09-06T05:40:23.645Z,19.7
2018-09-06T05:41:24.859Z,19.7
2018-09-06T05:42:26.040Z,19.8
2018-09-06T05:43:27.183Z,19.8
2018-09-06T05:44:31.402Z,19.8
2018-09-06T05:45:35.545Z,19.8
2018-09-06T05:46:39.388Z,19.9
2018-09-06T05:47:43.361Z,19.9
2018-09-06T05:48:44.536Z,20
2018-09-06T05:49:45.672Z,20
2018-09-06T05:50:46.812Z,20
2018-09-06T05:51:48.007Z,20
2018-09-06T05:52:51.487Z,20
2018-09-06T05:53:55.133Z,20
2018-09-06T05:54:56.323Z,20.2
2018-09-06T05:55:57.489Z,20.3
2018-09-06T05:56:58.625Z,20.3
2018-09-06T05:57:59.888Z,20.3
2018-09-06T05:59:01.056Z,20.3
2018-09-06T06:00:02.324Z,20.3
2018-09-06T06:01:03.532Z,20.3
2018-09-06T06:02:04.703Z,20.4
2018-09-06T06:03:06.188Z,20.4
2018-09-06T06:04:07.409Z,20.4
2018-09-06T06:05:08.587Z,20.5
2018-09-06T06:06:09.715Z,20.5
2018-09-06T06:07:10.847Z,20.5
2018-09-06T06:08:12.013Z,20.6
2018-09-06T06:09:13.171Z,20.7
2018-09-06T06:10:14.381Z,20.7
2018-09-06T06:11:15.545Z,20.7
2018-09-06T06:12:17.182Z,20.6
2018-09-06T06:13:19.490Z,20.7
2018-09-06T06:14:20.644Z,20.8
2018-09-06T06:15:21.817Z,20.9
2018-09-06T06:16:23.044Z,21
2018-09-06T06:17:25.030Z,21
2018-09-06T06:18:26.221Z,21.1
2018-09-06T06:19:27.376Z,21.2
2018-09-06T06:20:28.508Z,21.3
2018-09-06T06:21:29.689Z,21.1
2018-09-06T06:22:30.852Z,21.1
2018-09-06T06:23:32.022Z,21.2
2018-09-06T06:24:33.178Z,21.1
2018-09-06T06:25:34.431Z,21.2
2018-09-06T06:26:35.552Z,21.2
2018-09-06T06:27:36.725Z,21.2
2018-09-06T06:28:37.890Z,21.3
2018-09-06T06:29:39.032Z,21.2
2018-09-06T06:30:40.172Z,21.2
2018-09-06T06:31:41.322Z,21.3
2018-09-06T06:32:42.475Z,21.3
2018-09-06T06:33:43.658Z,21.4
2018-09-06T06:34:44.811Z,21.3
2018-09-06T06:35:46.005Z,21.4
2018-09-06T06:36:47.140Z,21.4
2018-09-06T06:37:48.296Z,21.4
2018-09-06T06:38:49.494Z,21.5
2018-09-06T06:39:50.646Z,21.5
2018-09-06T06:40:53.275Z,21.7
2018-09-06T06:41:54.493Z,21.8
2018-09-06T06:42:55.637Z,22
2018-09-06T06:43:56.804Z,21.9
2018-09-06T06:44:58.000Z,21.9
2018-09-06T06:46:01.413Z,22.1
2018-09-06T06:47:02.620Z,22.3
2018-09-06T06:48:04.135Z,22.4
2018-09-06T06:49:05.317Z,22.8
2018-09-06T06:50:06.531Z,23
2018-09-06T06:51:10.049Z,23.2
2018-09-06T06:52:11.216Z,23.2
2018-09-06T06:53:12.363Z,23.3
2018-09-06T06:54:14.958Z,23.2
2018-09-06T06:55:16.341Z,23.2
2018-09-06T06:56:20.241Z,23.3
2018-09-06T06:57:21.404Z,23.2
2018-09-06T06:58:22.582Z,23.1
2018-09-06T06:59:23.788Z,23.1
2018-09-06T07:00:24.936Z,23.4
2018-09-06T07:01:28.597Z,23.4
2018-09-06T07:02:29.783Z,23.2
2018-09-06T07:03:31.010Z,23
2018-09-06T07:04:32.579Z,23.1
2018-09-06T07:05:33.769Z,23.2
2018-09-06T07:06:34.888Z,23
2018-09-06T07:07:36.068Z,23.1
2018-09-06T07:08:37.244Z,23.1
2018-09-06T07:09:41.168Z,23.1
2018-09-06T07:10:42.404Z,23.1
2018-09-06T07:11:43.600Z,23.2
2018-09-06T07:12:44.768Z,23.5
2018-09-06T07:13:49.307Z,23.4
2018-09-06T07:14:52.174Z,23.6
2018-09-06T07:15:53.366Z,23.5
2018-09-06T07:16:54.522Z,23.5
2018-09-06T07:17:55.660Z,23.5
2018-09-06T07:18:56.788Z,23.5
2018-09-06T07:19:57.965Z,23.4
2018-09-06T07:20:59.118Z,23.4
2018-09-06T07:22:03.400Z,23.5
2018-09-06T07:23:04.592Z,23.3
2018-09-06T07:24:05.751Z,23.5
2018-09-06T07:25:07.060Z,23.5
2018-09-06T07:26:08.685Z,23.6
2018-09-06T07:27:09.872Z,23.7
2018-09-06T07:28:11.095Z,23.6
2018-09-06T07:29:12.315Z,23.8
2018-09-06T07:30:15.480Z,23.8
2018-09-06T07:31:23.395Z,24
2018-09-06T07:32:24.662Z,24
2018-09-06T07:33:25.843Z,24.1
2018-09-06T07:34:28.132Z,24.4
2018-09-06T07:35:29.319Z,24.4
2018-09-06T07:36:31.679Z,24.5
2018-09-06T07:37:36.225Z,24.8
2018-09-06T07:38:37.352Z,25
2018-09-06T07:39:38.525Z,24.8
2018-09-06T07:40:39.726Z,24.8
2018-09-06T07:41:40.888Z,24.8
2018-09-06T07:42:44.521Z,24.3
2018-09-06T07:43:45.681Z,24.2
2018-09-06T07:44:46.797Z,24.2
2018-09-06T07:45:47.965Z,24.4
2018-09-06T07:46:49.148Z,24.6
2018-09-06T07:47:50.291Z,25.1
2018-09-06T07:48:54.958Z,25.3
2018-09-06T07:49:56.124Z,25.1
2018-09-06T07:50:57.339Z,24.8
2018-09-06T07:51:58.539Z,25
2018-09-06T07:53:00.763Z,25.5
2018-09-06T07:54:03.295Z,25.6
2018-09-06T07:55:06.488Z,25.9
2018-09-06T07:56:07.783Z,25.5
2018-09-06T07:57:08.988Z,25
2018-09-06T07:58:10.189Z,24.9
2018-09-06T07:59:11.345Z,25.4
2018-09-06T08:00:12.543Z,25.3
2018-09-06T08:01:13.892Z,25.6
2018-09-06T08:02:15.320Z,25.6
2018-09-06T08:03:16.444Z,25.6
2018-09-06T08:04:17.688Z,25.2
2018-09-06T08:05:19.061Z,25.4
2018-09-06T08:06:20.575Z,25.5
2018-09-06T08:07:21.811Z,25.5
2018-09-06T08:08:22.964Z,25.4
2018-09-06T08:09:24.136Z,25.1
2018-09-06T08:10:26.554Z,25
2018-09-06T08:11:27.784Z,25.3
2018-09-06T08:12:30.055Z,25.2
2018-09-06T08:13:33.800Z,25.2
2018-09-06T08:14:37.702Z,25.2
2018-09-06T08:15:38.839Z,25.3
2018-09-06T08:16:40.720Z,25.5
2018-09-06T08:17:41.956Z,25.6
2018-09-06T08:18:43.148Z,25.6
2018-09-06T08:19:47.368Z,25.7
2018-09-06T08:20:51.392Z,25.8
2018-09-06T08:21:52.600Z,25.8
2018-09-06T08:22:56.169Z,25.8
2018-09-06T08:23:57.433Z,26
2018-09-06T08:25:01.451Z,25.9
2018-09-06T08:26:05.627Z,26.4
2018-09-06T08:27:06.803Z,26.9
2018-09-06T08:28:08.406Z,26.4
2018-09-06T08:29:09.947Z,26.9
2018-09-06T08:30:13.790Z,27
2018-09-06T08:31:15.097Z,26.6
2018-09-06T08:32:22.069Z,26.4
2018-09-06T08:33:23.307Z,26.5
2018-09-06T08:34:24.534Z,26.5
2018-09-06T08:35:28.015Z,26.8
2018-09-06T08:36:29.224Z,26.8
2018-09-06T08:37:30.655Z,27
2018-09-06T08:38:32.199Z,26.9
2018-09-06T08:39:33.395Z,27
2018-09-06T08:40:34.635Z,27.2
2018-09-06T08:41:35.813Z,27.4
2018-09-06T08:42:37.001Z,27.8
2018-09-06T08:43:38.136Z,27.9
2018-09-06T08:44:39.293Z,28
2018-09-06T08:45:40.486Z,27.1
2018-09-06T08:46:41.610Z,27
2018-09-06T08:47:43.059Z,27.1
2018-09-06T08:48:44.334Z,27.5
2018-09-06T08:49:45.467Z,27.3
2018-09-06T08:50:49.705Z,27.3
2018-09-06T08:51:53.337Z,27.2
2018-09-06T08:52:54.516Z,27.2
2018-09-06T08:53:55.649Z,27.5
2018-09-06T08:54:56.787Z,27.3
2018-09-06T08:55:57.961Z,27.2
2018-09-06T08:56:59.113Z,27.2
2018-09-06T08:58:00.681Z,27.4
2018-09-06T08:59:01.881Z,27.6
2018-09-06T09:00:03.089Z,27.3
2018-09-06T09:01:04.337Z,27.6
2018-09-06T09:02:05.543Z,27.8
2018-09-06T09:03:17.197Z,27.9
2018-09-06T09:04:20.503Z,27.3
2018-09-06T09:05:21.674Z,27.3
2018-09-06T09:06:27.467Z,27
2018-09-06T09:07:28.684Z,26.9
2018-09-06T09:08:31.439Z,27.2
2018-09-06T09:09:32.787Z,27
2018-09-06T09:10:34.392Z,27.6
2018-09-06T09:11:37.485Z,27.6
2018-09-06T09:12:38.681Z,27.2
2018-09-06T09:13:40.609Z,27.6
2018-09-06T09:14:41.767Z,27.5
2018-09-06T09:15:42.920Z,27.9
2018-09-06T09:16:45.813Z,27.7
2018-09-06T09:17:46.959Z,27.6
2018-09-06T09:18:48.146Z,27.8
2018-09-06T09:19:49.302Z,27.2
2018-09-06T09:20:50.440Z,27.1
2018-09-06T09:21:51.646Z,27.1
2018-09-06T09:22:55.711Z,27.4
2018-09-06T09:23:56.870Z,27.4
2018-09-06T09:24:58.061Z,27.3
2018-09-06T09:25:59.247Z,27.5
2018-09-06T09:27:00.395Z,27.3
2018-09-06T09:28:05.225Z,27.2
2018-09-06T09:29:12.014Z,27.2
2018-09-06T09:30:13.213Z,27.6
2018-09-06T09:31:14.455Z,27.7
2018-09-06T09:32:17.675Z,27.5
2018-09-06T09:33:18.859Z,27.4
2018-09-06T09:34:20.085Z,27.8
2018-09-06T09:35:21.256Z,28
2018-09-06T09:36:22.424Z,27.8
2018-09-06T09:37:27.763Z,27.4
2018-09-06T09:38:28.990Z,27.1
2018-09-06T09:39:30.209Z,27.2
2018-09-06T09:40:31.387Z,27.1
2018-09-06T09:41:38.015Z,27.1
2018-09-06T09:42:41.608Z,27.1
2018-09-06T09:43:42.783Z,27.3
2018-09-06T09:44:44.012Z,27.3
2018-09-06T09:45:45.176Z,27.2
2018-09-06T09:47:46.430Z,28
2018-09-06T09:48:47.563Z,27.8
2018-09-06T09:49:48.728Z,27.9
2018-09-06T09:50:50.517Z,27.9
2018-09-06T09:51:51.764Z,27.7
2018-09-06T09:52:52.895Z,27.8
2018-09-06T09:53:54.031Z,27.8
2018-09-06T09:54:55.212Z,27.9
2018-09-06T09:55:56.436Z,27.8
2018-09-06T09:56:57.639Z,27.8
2018-09-06T09:57:58.755Z,27.6
2018-09-06T09:58:59.925Z,27.4
2018-09-06T10:00:01.133Z,27.3
2018-09-06T10:01:02.512Z,27.3
2018-09-06T10:02:04.085Z,27.4
2018-09-06T10:03:05.258Z,27.5
2018-09-06T10:04:09.158Z,27.6
2018-09-06T10:05:10.328Z,27.7
2018-09-06T10:06:11.481Z,27.9
2018-09-06T10:07:12.598Z,27.9
2018-09-06T10:08:14.832Z,27.8
2018-09-06T10:09:15.956Z,27.7
2018-09-06T10:10:17.151Z,27.7
2018-09-06T10:11:18.330Z,27.8
2018-09-06T10:12:19.484Z,27.4
2018-09-06T10:13:20.659Z,27.4
2018-09-06T10:14:21.839Z,27.4
2018-09-06T10:15:25.196Z,27.6
2018-09-06T10:16:26.368Z,27.6
2018-09-06T10:17:30.374Z,27.8
2018-09-06T10:18:31.604Z,27.7
2018-09-06T10:19:34.976Z,27.6
2018-09-06T10:20:36.217Z,27.6
2018-09-06T10:21:37.367Z,27.6
2018-09-06T10:22:39.863Z,27.8
2018-09-06T10:23:40.971Z,27.6
2018-09-06T10:24:42.124Z,27.5
2018-09-06T10:25:43.359Z,27.6
2018-09-06T10:26:44.684Z,27.7
2018-09-06T10:27:46.572Z,27.8
2018-09-06T10:28:47.737Z,27.6
2018-09-06T10:29:48.872Z,27.5
2018-09-06T10:30:50.015Z,27.2
2018-09-06T10:31:51.165Z,27.2
2018-09-06T10:32:52.995Z,27.3
2018-09-06T10:33:56.376Z,27.1
2018-09-06T10:34:57.866Z,27.3
2018-09-06T10:35:59.159Z,27.4
2018-09-06T10:37:02.352Z,27.5
2018-09-06T10:38:03.572Z,27.5
2018-09-06T10:39:06.844Z,27.6
2018-09-06T10:40:08.188Z,27.6
2018-09-06T10:41:09.406Z,27.4
2018-09-06T10:42:14.727Z,27.5
2018-09-06T10:43:16.028Z,27.4
2018-09-06T10:44:19.979Z,27.4
2018-09-06T10:45:21.207Z,27.4
2018-09-06T10:46:22.721Z,27.5
2018-09-06T10:47:23.930Z,27.4
2018-09-06T10:48:25.166Z,27.3
2018-09-06T10:49:26.353Z,27.2
2018-09-06T10:50:27.642Z,27.1
2018-09-06T10:51:30.219Z,27
2018-09-06T10:52:34.146Z,26.7
2018-09-06T10:53:35.399Z,26.7
2018-09-06T10:54:36.533Z,26.7
2018-09-06T10:55:41.195Z,26.7
2018-09-06T10:56:45.352Z,26.8
2018-09-06T10:57:46.619Z,27
2018-09-06T10:58:47.803Z,27.1
2018-09-06T10:59:50.039Z,27
2018-09-06T11:00:59.032Z,27.1
2018-09-06T11:02:00.607Z,27
2018-09-06T11:03:07.541Z,26.6
2018-09-06T11:04:08.742Z,26.8
2018-09-06T11:05:13.128Z,26.9
2018-09-06T11:06:14.379Z,26.8
2018-09-06T11:07:15.690Z,26.7
2018-09-06T11:08:18.978Z,26.7
2018-09-06T11:09:20.207Z,26.6
2018-09-06T11:10:24.264Z,26.7
2018-09-06T11:11:25.558Z,26.7
2018-09-06T11:12:26.779Z,26.9
2018-09-06T11:13:30.845Z,26.9
2018-09-06T11:14:41.084Z,26.8
2018-09-06T11:15:45.427Z,26.9
2018-09-06T11:16:46.775Z,27.1
2018-09-06T11:17:48.068Z,27
2018-09-06T11:18:52.006Z,26.9
2018-09-06T11:19:53.172Z,26.9
2018-09-06T11:20:58.216Z,27.1
2018-09-06T11:21:59.486Z,27
2018-09-06T11:23:00.645Z,27
2018-09-06T11:24:09.972Z,27.1
2018-09-06T11:25:14.034Z,27.2
2018-09-06T11:26:15.408Z,27.2
2018-09-06T11:27:19.544Z,27.1
2018-09-06T11:28:23.298Z,27.2
2018-09-06T11:29:24.495Z,27.2
2018-09-06T11:30:25.684Z,27.2
2018-09-06T11:31:26.881Z,27.1
2018-09-06T11:32:32.102Z,27.2
2018-09-06T11:33:33.381Z,27.3
2018-09-06T11:34:34.536Z,27.3
2018-09-06T11:35:35.674Z,27.2
2018-09-06T11:36:36.826Z,27.3
2018-09-06T11:37:43.573Z,27.3
2018-09-06T11:38:44.746Z,27.4
2018-09-06T11:39:45.969Z,27.4
2018-09-06T11:40:47.171Z,27.5
2018-09-06T11:41:48.403Z,27.5
2018-09-06T11:42:49.619Z,27.5
2018-09-06T11:43:50.800Z,27.6
2018-09-06T11:44:54.472Z,27.6
2018-09-06T11:45:55.674Z,27.6
2018-09-06T11:47:03.177Z,27.6
2018-09-06T11:48:05.650Z,27.7
2018-09-06T11:49:06.868Z,27.6
2018-09-06T11:50:08.440Z,27.7
2018-09-06T11:51:10.051Z,27.6
2018-09-06T11:52:11.288Z,27.6
2018-09-06T11:53:12.433Z,27.4
2018-09-06T11:54:13.577Z,27.6
2018-09-06T11:55:14.724Z,27.4
2018-09-06T11:56:16.013Z,27.7
2018-09-06T11:57:17.177Z,27.6
2018-09-06T11:58:18.348Z,27.5
2018-09-06T11:59:19.551Z,27.5
2018-09-06T12:00:20.819Z,27.5
2018-09-06T12:01:21.995Z,27.6
2018-09-06T12:02:23.150Z,27.6
2018-09-06T12:03:24.394Z,27.8
2018-09-06T12:04:25.646Z,27.8
2018-09-06T12:05:28.341Z,27.8
2018-09-06T12:06:33.426Z,27.7
2018-09-06T12:07:34.731Z,27.7
2018-09-06T12:08:36.596Z,27.8
2018-09-06T12:09:41.873Z,27.7
2018-09-06T12:10:43.044Z,27.7
2018-09-06T12:11:46.482Z,27.8
2018-09-06T12:12:47.630Z,27.7
2018-09-06T12:13:51.650Z,27.7
2018-09-06T12:14:52.775Z,27.6
2018-09-06T12:15:56.691Z,27.6
2018-09-06T12:17:03.205Z,27.5
2018-09-06T12:18:04.336Z,27.4
2018-09-06T12:19:06.899Z,27.5
2018-09-06T12:20:08.215Z,27.5
2018-09-06T12:21:09.420Z,27.6
2018-09-06T12:22:10.604Z,27.5
2018-09-06T12:23:11.758Z,27.6
2018-09-06T12:24:12.882Z,27.6
2018-09-06T12:25:14.064Z,27.7
2018-09-06T12:26:15.325Z,27.6
2018-09-06T12:27:17.622Z,27.8
2018-09-06T12:28:21.601Z,27.9
2018-09-06T12:29:25.661Z,27.9
2018-09-06T12:30:31.768Z,27.8
2018-09-06T12:31:32.917Z,27.9
2018-09-06T12:32:34.203Z,27.8
2018-09-06T12:33:35.616Z,27.6
2018-09-06T12:34:36.865Z,27.7
2018-09-06T12:35:38.049Z,27.7
2018-09-06T12:36:39.170Z,27.8
2018-09-06T12:37:40.330Z,27.7
2018-09-06T12:38:44.802Z,27.8
2018-09-06T12:39:45.940Z,27.8
2018-09-06T12:40:47.180Z,27.7
2018-09-06T12:41:48.376Z,27.8
2018-09-06T12:42:49.580Z,27.9
2018-09-06T12:43:50.711Z,28.1
2018-09-06T12:44:51.864Z,28.1
2018-09-06T12:45:55.404Z,27.9
2018-09-06T12:46:56.556Z,27.9
2018-09-06T12:47:57.711Z,28
2018-09-06T12:48:58.821Z,28
2018-09-06T12:50:05.102Z,27.8
2018-09-06T12:51:06.360Z,27.6
2018-09-06T12:52:08.587Z,27.6
2018-09-06T12:53:09.745Z,27.6
2018-09-06T12:54:10.921Z,27.6
2018-09-06T12:55:14.218Z,27.5
2018-09-06T12:56:17.518Z,27.5
2018-09-06T12:57:18.689Z,27.6
2018-09-06T12:58:19.830Z,27.5
2018-09-06T12:59:21.027Z,27.7
2018-09-06T13:00:24.438Z,27.5
2018-09-06T13:01:25.692Z,27.4
2018-09-06T13:02:26.855Z,27.5
2018-09-06T13:03:28.677Z,27.6
2018-09-06T13:04:29.837Z,27.6
2018-09-06T13:05:33.493Z,27.7
2018-09-06T13:06:34.667Z,27.8
2018-09-06T13:07:37.214Z,27.8
2018-09-06T13:08:39.104Z,27.8
2018-09-06T13:09:40.642Z,27.7
2018-09-06T13:10:46.220Z,27.8
2018-09-06T13:11:53.220Z,27.6
2018-09-06T13:12:57.292Z,27.6
2018-09-06T13:13:58.461Z,27.4
2018-09-06T13:15:02.065Z,27.4
2018-09-06T13:16:04.099Z,27.3
2018-09-06T13:17:05.988Z,27.4
2018-09-06T13:18:10.374Z,27.5
2018-09-06T13:19:11.614Z,27.6
2018-09-06T13:20:15.193Z,27.6
2018-09-06T13:21:16.435Z,27.7
2018-09-06T13:22:25.143Z,27.7
2018-09-06T13:23:26.561Z,27.7
2018-09-06T13:24:28.288Z,27.8
2018-09-06T13:25:30.831Z,27.7
2018-09-06T13:26:32.099Z,27.8
2018-09-06T13:27:33.310Z,27.9
2018-09-06T13:28:34.508Z,28
2018-09-06T13:29:37.840Z,27.9
2018-09-06T13:30:40.622Z,27.9
2018-09-06T13:31:41.775Z,27.6
2018-09-06T13:32:43.026Z,27.7
2018-09-06T13:33:44.222Z,27.6
2018-09-06T13:34:45.452Z,27.4
2018-09-06T13:35:48.822Z,27.4
2018-09-06T13:36:51.704Z,27.5
2018-09-06T13:37:52.851Z,27.5
2018-09-06T13:38:54.027Z,27.6
2018-09-06T13:39:57.570Z,27.7
2018-09-06T13:41:01.637Z,27.8
2018-09-06T13:42:03.936Z,27.8
2018-09-06T13:43:05.448Z,27.8
2018-09-06T13:44:09.828Z,27.9
2018-09-06T13:45:13.152Z,27.9
2018-09-06T13:46:14.326Z,27.9
2018-09-06T13:47:18.341Z,27.9
2018-09-06T13:48:19.710Z,27.9